KBWG/BWG METAR and TAF weather

Enter ICAO airport designator
Station Type Date Time Source
KBWG METAR 2019/07/17 12:02 UTC NOAA

KBWG 171202Z AUTO 22005KT 10SM BKN012 OVC018 24/22 A3000 RMK AO2 RAE1158 P0000 T02390222


Station Type Date Time Source
KBWG Decoded METAR 2019/07/17 12:02 UTC NOAA

BOWLING GREEN-WARREN CO RGNL, KY, United States (KBWG) 36-58N 086-25W 161M
Jul 17, 2019 - 08:02 AM EDT / 2019.07.17 1202 UTC
Wind: from the SW (220 degrees) at 6 MPH (5 KT):0
Visibility: 10 mile(s):0
Sky conditions: overcast
Precipitation last hour: A trace
Temperature: 75.0 F (23.9 C)
Dew Point: 72.0 F (22.2 C)
Relative Humidity: 90%
Pressure (altimeter): 30 in. Hg (1015 hPa)
ob: KBWG 171202Z AUTO 22005KT 10SM BKN012 OVC018 24/22 A3000 RMK AO2 RAE1158 P0000 T02390222
cycle: 12

Station Type Date Time Source
KBWG TAF 2019/07/17 12:36 UTC NOAA

TAF KBWG 171133Z 1712/1812 22009KT P6SM VCSH BKN018
TEMPO 1712/1715 5SM -SHRA BKN008
FM171800 25009KT P6SM VCSH BKN040 PROB30 1721/1801 6SM -TSRA BKN035CB
FM180100 24005KT P6SM SCT050
FM180800 22003KT 4SM BR SCT050

Example: see airport list